• Join FlightAware (Why Join?)
  • Login
  • US Flag 
11:39AM EST


 

Airport Tracker/Info


-or-


 

Live Flight TrackerFlight Track Log ✈ VH-LHH ✈ 28-Nov-2013 ✈ YPDN / DRW - YPDN / DRW

Flight Track Log - Related Links

Times and Time Zones

All times are in EST time to prevent confusion due to time zone crossing. See the VH-LHH flight status page for this flight to view local times or setup timezone preferences in your user account.

Time Position Orientation Groundspeed Altitude Reporting Facility
EST Latitude Longitude Course Direction KTS MPH feet Rate Location/Type
10:03PM -12.4033 130.8686 331° Northwest 97 112 800  Level Aus ATC (RADAR)
10:03PM -12.3853 130.8586 331° Northwest 107 123 1,400 900 Climbing Aus ATC (RADAR)
10:04PM -12.3642 130.8483 335° Northwest 112 129 2,100 960 Climbing Aus ATC (RADAR)
10:04PM -12.3504 130.8414 334° Northwest 110 127 2,600 960 Climbing Aus ATC (RADAR)
10:05PM -12.3236 130.8311 340° North 113 130 3,500 1,020 Climbing Aus ATC (RADAR)
10:06PM -12.3136 130.8278 342° North 112 129 3,900 240 Climbing Aus ATC (RADAR)
10:08PM -12.2512 130.8045 340° North 131 151 4,100 60 Climbing Aus ATC (RADAR)
10:08PM -12.2307 130.7965 339° North 131 151 4,100  Level Aus ATC (RADAR)
10:08PM -12.2220 130.7930 339° North 131 151 4,100  Level Aus ATC (RADAR)
10:09PM -12.2015 130.7854 340° North 130 150 4,100  Level Aus ATC (RADAR)
10:10PM -12.1726 130.7742 339° North 130 150 4,100  Level Aus ATC (RADAR)
10:10PM -12.1489 130.7653 340° North 132 152 4,100  Level Aus ATC (RADAR)
10:11PM -12.1253 130.7562 340° North 132 152 4,100  Level Aus ATC (RADAR)
10:12PM -12.0816 130.7393 339° North 129 148 4,100  Level Aus ATC (RADAR)
10:13PM -12.0586 130.7303 339° North 129 148 4,100  Level Aus ATC (RADAR)
10:14PM -12.0380 130.7227 340° North 130 150 4,100  Level Aus ATC (RADAR)
10:14PM -12.0060 130.7103 339° North 130 150 4,100  Level Aus ATC (RADAR)
10:15PM -11.9971 130.7072 341° North 131 151 4,100  Level Aus ATC (RADAR)
10:15PM -11.9760 130.6995 340° North 134 154 4,100  Level Aus ATC (RADAR)
10:16PM -11.9436 130.6871 339° North 132 152 4,100  Level Aus ATC (RADAR)
10:18PM -11.8863 130.6655 340° North 128 147 4,100  Level Aus ATC (RADAR)
10:18PM -11.8776 130.6620 339° North 128 147 4,100  Level Aus ATC (RADAR)
10:19PM -11.8523 130.6518 338° Northwest 126 145 4,100  Level Aus ATC (RADAR)
10:20PM -11.8292 130.6439 341° North 127 146 4,100  Level Aus ATC (RADAR)
10:20PM -11.8062 130.6356 341° North 128 147 4,100  Level Aus ATC (RADAR)
10:21PM -11.7751 130.6233 339° North 127 146 4,100  Level Aus ATC (RADAR)
10:21PM -11.7665 130.6202 341° North 127 146 4,100 -60 Level Aus ATC (RADAR)
10:23PM -11.7214 130.5974 334° Northwest 122 140 4,000  Descending Aus ATC (RADAR)
10:23PM -11.7185 130.5862 285° West 111 128 4,100  Climbing Aus ATC (RADAR)
10:24PM -11.7239 130.5638 256° West 126 145 4,000 -300 Descending Aus ATC (RADAR)
10:25PM -11.6981 130.5459 326° Northwest 131 151 3,700 -540 Descending Aus ATC (RADAR)
10:25PM -11.6754 130.5558 23° Northeast 136 157 3,300 -480 Descending Aus ATC (RADAR)
10:26PM -11.6655 130.5878 73° East 155 178 3,100 -360 Descending Aus ATC (RADAR)
10:26PM -11.6715 130.6058 109° East 158 182 2,900 -60 Descending Aus ATC (RADAR)
10:28PM -11.7401 130.6216 167° South 136 157 3,000 60 Climbing Aus ATC (RADAR)
10:28PM -11.7512 130.6295 145° Southeast 137 158 3,100 -120 Climbing Aus ATC (RADAR)
10:29PM -11.7719 130.6410 152° Southeast 140 161 2,900 -180 Descending Aus ATC (RADAR)
10:30PM -11.8063 130.6552 158° South 140 161 2,900  Level Aus ATC (RADAR)
10:31PM -11.8285 130.6633 160° South 141 162 2,900  Level Aus ATC (RADAR)
10:31PM -11.8623 130.6776 157° South 139 160 2,900  Level Aus ATC (RADAR)
10:33PM -11.9120 130.6976 159° South 129 148 2,900  Level Aus ATC (RADAR)
10:34PM -11.9379 130.7082 158° South 130 150 2,900  Level Aus ATC (RADAR)
10:34PM -11.9463 130.7122 155° Southeast 129 148 2,900  Level Aus ATC (RADAR)
10:34PM -11.9665 130.7204 158° South 129 148 2,900  Level Aus ATC (RADAR)
10:35PM -11.9898 130.7291 160° South 130 150 2,900  Level Aus ATC (RADAR)
10:36PM -12.0070 130.7365 157° South 130 150 2,900  Level Aus ATC (RADAR)
10:36PM -12.0253 130.7498 144° Southeast 133 153 2,900  Level Aus ATC (RADAR)
10:37PM -12.0465 130.7638 147° Southeast 132 152 2,900  Level Aus ATC (RADAR)
10:38PM -12.0887 130.7917 147° Southeast 132 152 2,900  Level Aus ATC (RADAR)
10:39PM -12.1020 130.8004 147° Southeast 132 152 2,900  Level Aus ATC (RADAR)
10:39PM -12.1210 130.8128 148° Southeast 134 154 2,900  Level Aus ATC (RADAR)
10:40PM -12.1426 130.8269 147° Southeast 134 154 2,900 120 Level Aus ATC (RADAR)
10:41PM -12.1640 130.8412 147° Southeast 134 154 3,100  Climbing Aus ATC (RADAR)
10:41PM -12.1803 130.8520 147° Southeast 135 155 2,900 -180 Descending Aus ATC (RADAR)
10:42PM -12.2081 130.8695 148° Southeast 137 158 2,900  Level Aus ATC (RADAR)
10:43PM -12.2597 130.9037 147° Southeast 136 157 2,900  Level Aus ATC (RADAR)
10:44PM -12.2678 130.9092 146° Southeast 136 157 2,900  Level Aus ATC (RADAR)
10:44PM -12.2867 130.9215 147° Southeast 134 154 2,900 60 Level Aus ATC (RADAR)
10:45PM -12.3162 130.9406 148° Southeast 132 152 3,000 60 Climbing Aus ATC (RADAR)
10:46PM -12.3365 130.9539 147° Southeast 126 145 3,000  Level Aus ATC (RADAR)
10:47PM -12.3563 130.9737 136° Southeast 137 158 3,000  Level Aus ATC (RADAR)
10:48PM -12.3699 131.0384 102° East 139 160 3,000  Level Aus ATC (RADAR)
10:49PM -12.3756 131.0612 104° East 139 160 3,100 -120 Climbing Aus ATC (RADAR)
10:49PM -12.3790 131.0744 105° East 141 162 2,900 -120 Descending Aus ATC (RADAR)
10:50PM -12.3862 131.1003 106° East 141 162 3,000 60 Climbing Aus ATC (RADAR)
10:51PM -12.4073 131.1140 148° Southeast 135 155 3,000 -120 Level Aus ATC (RADAR)
10:51PM -12.4253 131.1046 207° Southwest 112 129 2,900 60 Descending Aus ATC (RADAR)
10:52PM -12.4428 131.0807 233° Southwest 112 129 3,100 60 Climbing Aus ATC (RADAR)
10:52PM -12.4475 131.0741 234° Southwest 113 130 3,000  Descending Aus ATC (RADAR)
10:54PM -12.4605 131.0243 255° West 114 131 3,100 -60 Climbing Aus ATC (RADAR)
10:54PM -12.4578 131.0137 285° West 113 130 2,900 -480 Descending Aus ATC (RADAR)
10:55PM -12.4551 130.9983 280° West 110 127 2,700 -660 Descending Aus ATC (RADAR)
10:56PM -12.4465 130.9704 287° West 94 108 1,900 -900 Descending Aus ATC (RADAR)
10:56PM -12.4440 130.9570 281° West 94 108 1,300 -540 Descending Aus ATC (RADAR)
10:57PM -12.4371 130.9338 287° West 103 119 1,200 -300 Descending Aus ATC (RADAR)
10:59PM -12.4185 130.8985 298° West 82 94 700 -480 Descending Aus ATC (RADAR)
10:59PM -12.4155 130.8911 293° West 69 79 300 -780 Descending Aus ATC (RADAR)
10:59PM -12.4149 130.8896 292° West 69 79 300  Level Aus ATC (RADAR)